Time;durP1;ratioP1;P1;durP2;ratioP2;P2;SDS_P1;SDS_P2;PMS_P1;PMS_P2;Temp;Humidity;BMP_temperature;BMP_pressure;BME280_temperature;BME280_humidity;BME280_pressure;Samples;Min_cycle;Max_cycle;Signal;HPM_P1;HPM_P2
2021/04/26 00:00:31;;;;;;;9.23;5.43;;;;;;;12.84;95.70;101144.78;4996703;28;20022;-73
2021/04/26 00:03:16;;;;;;;7.60;5.18;;;;;;;12.70;96.09;101146.78;4995693;28;20406;-74
2021/04/26 00:06:02;;;;;;;10.23;5.43;;;;;;;12.89;95.52;101149.91;4997845;28;20022;-74
2021/04/26 00:08:48;;;;;;;7.68;5.20;;;;;;;13.02;93.75;101148.84;4997735;28;20034;-73
2021/04/26 00:11:33;;;;;;;7.85;5.72;;;;;;;12.86;95.94;101155.28;4997895;28;20030;-73
2021/04/26 00:14:20;;;;;;;8.20;5.63;;;;;;;12.86;98.31;101150.84;4997068;28;20109;-73
2021/04/26 00:17:06;;;;;;;7.47;5.70;;;;;;;12.85;98.57;101150.88;4997782;28;20034;-73
2021/04/26 00:19:52;;;;;;;7.75;5.47;;;;;;;12.80;96.14;101143.09;4997558;28;20451;-73
2021/04/26 00:22:38;;;;;;;8.82;5.20;;;;;;;12.71;96.41;101140.66;4983562;28;20448;-73
2021/04/26 00:25:24;;;;;;;8.23;5.38;;;;;;;12.93;95.69;101135.81;4996428;28;20125;-73
2021/04/26 00:28:10;;;;;;;9.43;5.50;;;;;;;12.85;95.31;101143.00;4983175;28;20030;-73
2021/04/26 00:30:56;;;;;;;7.40;5.50;;;;;;;12.40;96.49;101138.63;4997238;28;20049;-73
2021/04/26 00:33:41;;;;;;;9.18;5.57;;;;;;;12.80;95.17;101135.22;4983507;28;20038;-73
2021/04/26 00:36:27;;;;;;;10.20;5.55;;;;;;;12.55;96.09;101138.34;4983527;28;20522;-73
2021/04/26 00:39:13;;;;;;;8.60;5.30;;;;;;;12.52;96.39;101138.38;4996398;28;20061;-73
2021/04/26 00:41:59;;;;;;;7.20;5.30;;;;;;;12.89;94.43;101134.16;4982890;28;20027;-74
2021/04/26 00:44:44;;;;;;;8.77;5.40;;;;;;;12.91;92.98;101140.25;4995971;28;20022;-74
2021/04/26 00:47:30;;;;;;;6.80;4.95;;;;;;;12.56;93.17;101134.81;4997251;28;20026;-74
2021/04/26 00:50:19;;;;;;;9.18;5.18;;;;;;;12.94;91.47;101142.84;4996931;28;20034;-74
2021/04/26 00:53:06;;;;;;;8.60;5.25;;;;;;;12.55;91.75;101144.47;4995980;28;20440;-73
2021/04/26 00:55:52;;;;;;;6.60;4.78;;;;;;;12.50;91.92;101148.94;4982598;28;20459;-74
2021/04/26 00:58:38;;;;;;;9.45;5.53;;;;;;;12.52;92.62;101144.53;4982849;28;20510;-73
2021/04/26 01:01:24;;;;;;;8.95;4.85;;;;;;;12.44;92.39;101150.81;4995938;28;20042;-73
2021/04/26 01:04:09;;;;;;;6.25;4.70;;;;;;;12.57;92.07;101168.97;4996930;28;20313;-74
2021/04/26 01:06:55;;;;;;;10.27;5.45;;;;;;;12.27;94.34;101172.16;4996600;28;20459;-73
2021/04/26 01:09:41;;;;;;;7.15;5.60;;;;;;;12.30;96.08;101164.19;4996663;28;20034;-73
2021/04/26 01:12:51;;;;;;;8.88;5.10;;;;;;;12.86;95.42;101166.63;4982573;28;20027;-74
2021/04/26 01:16:08;;;;;;;7.75;5.63;;;;;;;12.58;99.56;101160.16;4996609;28;20406;-74
2021/04/26 01:19:27;;;;;;;9.27;5.80;;;;;;;12.54;100.00;101161.13;4996402;28;20080;-74
2021/04/26 01:22:46;;;;;;;8.27;6.50;;;;;;;12.27;100.00;101152.88;4996278;28;20423;-74
2021/04/26 01:25:34;;;;;;;8.13;5.55;;;;;;;12.27;100.00;101158.13;4982207;28;20054;-73
2021/04/26 01:28:57;;;;;;;9.48;5.70;;;;;;;12.37;100.00;101150.06;4996575;28;20041;-73
2021/04/26 01:31:55;;;;;;;8.77;5.82;;;;;;;11.89;100.00;101147.41;4996352;28;20022;-74
2021/04/26 01:34:42;;;;;;;7.85;5.75;;;;;;;12.40;99.71;101144.75;4982755;28;20041;-73
2021/04/26 01:37:31;;;;;;;9.02;5.35;;;;;;;12.17;100.00;101146.06;4996223;28;20451;-72
2021/04/26 01:40:19;;;;;;;6.70;5.00;;;;;;;12.32;98.91;101133.50;4996431;28;20478;-73
2021/04/26 01:43:05;;;;;;;8.40;5.30;;;;;;;12.12;98.76;101133.00;4995806;28;20329;-73
2021/04/26 01:45:53;;;;;;;8.68;5.55;;;;;;;12.43;96.56;101134.19;4982593;28;20030;-73
2021/04/26 01:48:42;;;;;;;8.30;5.38;;;;;;;11.92;97.85;101135.09;4995793;28;20041;-73
2021/04/26 01:51:28;;;;;;;8.40;5.43;;;;;;;12.27;95.15;101122.22;4995243;28;20030;-73
2021/04/26 01:54:15;;;;;;;6.05;4.68;;;;;;;12.16;93.53;101118.03;4995836;28;20064;-74
2021/04/26 01:57:02;;;;;;;12.25;5.05;;;;;;;11.60;95.06;101118.97;4995904;28;20026;-74
2021/04/26 01:59:48;;;;;;;8.65;5.22;;;;;;;11.88;93.57;101117.66;4981691;28;20121;-73
2021/04/26 02:02:36;;;;;;;7.50;4.90;;;;;;;12.00;92.70;101119.19;4994417;28;20096;-74
2021/04/26 02:05:24;;;;;;;6.18;5.00;;;;;;;11.95;92.16;101118.41;4995884;28;20023;-73
2021/04/26 02:08:13;;;;;;;8.18;4.97;;;;;;;12.29;89.34;101115.16;4980942;28;20033;-73
2021/04/26 02:10:59;;;;;;;7.80;4.50;;;;;;;11.86;89.63;101114.16;4995196;28;20027;-73
2021/04/26 02:13:47;;;;;;;6.80;5.20;;;;;;;12.24;87.98;101111.75;4981960;28;20026;-72
2021/04/26 02:16:33;;;;;;;11.45;5.00;;;;;;;12.33;85.03;101123.84;4994923;28;20077;-73
2021/04/26 02:19:20;;;;;;;8.77;4.88;;;;;;;12.57;84.78;101124.28;4994508;28;20432;-73
2021/04/26 02:22:06;;;;;;;6.45;5.00;;;;;;;12.45;84.76;101129.75;4995983;28;20065;-73
2021/04/26 02:24:52;;;;;;;8.48;5.18;;;;;;;12.33;85.58;101129.09;4994567;28;20022;-74
2021/04/26 02:27:38;;;;;;;6.93;4.93;;;;;;;12.66;83.41;101131.97;4993986;28;20033;-74
2021/04/26 02:30:24;;;;;;;7.88;4.55;;;;;;;12.78;83.01;101133.53;4995291;28;20035;-73
2021/04/26 02:33:15;;;;;;;6.78;4.88;;;;;;;12.89;83.18;101127.13;4995427;28;20054;-73
2021/04/26 02:36:12;;;;;;;7.97;5.00;;;;;;;11.93;90.01;101125.47;4995500;28;20031;-72
2021/04/26 02:39:05;;;;;;;7.60;4.57;;;;;;;11.92;90.64;101123.69;4994240;28;20037;-73
2021/04/26 02:41:51;;;;;;;6.53;4.90;;;;;;;12.02;90.81;101126.16;4995294;28;20030;-73
2021/04/26 02:44:39;;;;;;;8.07;5.03;;;;;;;11.77;90.52;101119.56;4994098;28;20336;-73
2021/04/26 02:47:27;;;;;;;11.38;5.30;;;;;;;11.59;92.24;101125.09;4995291;28;20440;-74
2021/04/26 02:50:20;;;;;;;7.88;5.32;;;;;;;11.82;91.78;101119.50;4995181;28;20038;-72
2021/04/26 02:53:06;;;;;;;7.30;5.10;;;;;;;11.48;92.80;101119.13;4994117;28;20029;-73
2021/04/26 02:55:55;;;;;;;9.10;5.10;;;;;;;11.68;91.61;101119.72;4995229;28;20045;-73
2021/04/26 02:58:44;;;;;;;9.23;5.25;;;;;;;11.28;92.11;101115.03;4995310;28;20408;-72
2021/04/26 03:01:31;;;;;;;8.05;5.10;;;;;;;11.64;91.34;101110.16;4995129;28;20029;-73
2021/04/26 03:04:18;;;;;;;6.85;4.60;;;;;;;11.45;91.12;101120.94;4994280;28;20034;-73
2021/04/26 03:07:05;;;;;;;7.40;5.15;;;;;;;11.74;90.48;101116.13;4993803;28;20033;-73
2021/04/26 03:09:51;;;;;;;9.80;5.05;;;;;;;11.90;88.69;101112.38;4995433;28;20037;-73
2021/04/26 03:12:40;;;;;;;8.18;5.18;;;;;;;11.36;91.22;101113.16;4994221;28;20019;-73
2021/04/26 03:15:29;;;;;;;7.55;4.90;;;;;;;11.91;89.03;101114.97;4995632;28;20038;-72
2021/04/26 03:18:15;;;;;;;7.20;5.05;;;;;;;11.90;86.78;101115.00;4995021;28;20065;-74
2021/04/26 03:21:03;;;;;;;7.32;4.88;;;;;;;11.65;87.36;101119.75;4980696;28;20037;-74
2021/04/26 03:23:49;;;;;;;9.35;4.60;;;;;;;11.70;89.44;101124.94;4994831;28;20058;-73
2021/04/26 03:26:36;;;;;;;6.68;4.95;;;;;;;11.80;87.29;101122.16;4994939;28;20038;-74
2021/04/26 03:29:23;;;;;;;6.72;4.80;;;;;;;11.44;87.41;101127.91;4995092;28;20030;-73
2021/04/26 03:32:13;;;;;;;7.20;4.82;;;;;;;11.65;87.84;101127.63;4994836;28;20033;-73
2021/04/26 03:35:00;;;;;;;6.97;4.75;;;;;;;11.58;87.45;101131.19;4995050;28;20030;-73
2021/04/26 03:37:48;;;;;;;9.13;4.97;;;;;;;11.49;88.50;101122.63;4995536;28;20038;-72
2021/04/26 03:40:37;;;;;;;6.22;4.90;;;;;;;11.52;87.88;101126.06;4983611;28;20038;-73
2021/04/26 03:43:23;;;;;;;7.55;4.90;;;;;;;11.42;89.24;101131.47;4998264;28;20117;-73
2021/04/26 03:46:08;;;;;;;8.15;5.05;;;;;;;11.65;87.87;101140.75;4998748;28;20026;-73
2021/04/26 03:48:54;;;;;;;8.68;4.88;;;;;;;11.64;87.26;101152.16;4998014;28;20030;-73
2021/04/26 03:51:40;;;;;;;8.02;5.00;;;;;;;11.48;87.30;101149.72;4998133;28;20030;-74
2021/04/26 03:54:26;;;;;;;6.13;5.00;;;;;;;11.34;89.23;101156.94;4997878;28;20052;-73
2021/04/26 03:57:11;;;;;;;7.47;5.18;;;;;;;11.67;87.23;101165.25;4996866;28;20109;-74
2021/04/26 03:59:57;;;;;;;7.63;5.57;;;;;;;11.92;86.13;101160.47;4998018;28;20427;-73
2021/04/26 04:02:45;;;;;;;10.73;6.55;;;;;;;11.96;86.42;101159.53;4997451;28;20032;-73
2021/04/26 04:05:32;;;;;;;10.40;6.90;;;;;;;12.16;84.37;101162.69;4999021;28;20477;-73
2021/04/26 04:08:17;;;;;;;9.98;6.53;;;;;;;11.71;85.80;101156.44;4996513;28;20038;-74
2021/04/26 04:11:03;;;;;;;10.48;6.57;;;;;;;12.10;83.05;101155.78;4996682;28;20113;-74
2021/04/26 04:13:49;;;;;;;9.73;6.20;;;;;;;11.48;86.69;101161.09;4996272;28;20034;-74
2021/04/26 04:16:35;;;;;;;9.10;5.55;;;;;;;11.89;85.96;101160.53;4996697;28;20058;-74
2021/04/26 04:19:20;;;;;;;10.32;5.63;;;;;;;11.40;88.18;101164.72;4997408;28;20109;-74
2021/04/26 04:22:06;;;;;;;11.23;5.75;;;;;;;11.89;86.62;101157.91;4997469;28;20129;-73
2021/04/26 04:24:52;;;;;;;9.50;5.50;;;;;;;11.90;83.40;101147.34;4997072;28;20489;-73
2021/04/26 04:27:38;;;;;;;10.70;5.43;;;;;;;11.80;85.19;101153.66;4997622;28;20033;-73
2021/04/26 04:30:24;;;;;;;9.63;5.82;;;;;;;12.09;83.95;101158.44;4982837;28;20026;-73
2021/04/26 04:33:09;;;;;;;9.07;6.00;;;;;;;12.34;83.54;101157.97;4982868;28;20042;-74
2021/04/26 04:35:57;;;;;;;9.23;5.93;;;;;;;11.96;85.58;101163.03;4983819;28;20096;-74
2021/04/26 04:38:42;;;;;;;9.10;5.60;;;;;;;12.17;84.71;101161.81;4982251;28;20050;-73
2021/04/26 04:41:28;;;;;;;12.55;5.30;;;;;;;11.98;83.63;101161.22;4996852;28;20026;-72
2021/04/26 04:44:14;;;;;;;8.68;5.57;;;;;;;11.93;85.58;101164.84;4994945;28;20023;-74
2021/04/26 04:46:59;;;;;;;11.13;5.40;;;;;;;12.10;85.10;101157.56;4995895;28;20037;-74
2021/04/26 04:49:45;;;;;;;9.23;5.22;;;;;;;12.31;84.48;101150.19;4995195;28;20466;-73
2021/04/26 04:52:31;;;;;;;8.32;5.22;;;;;;;12.26;84.85;101145.88;4997153;28;20044;-74
2021/04/26 04:55:17;;;;;;;10.23;5.85;;;;;;;12.75;82.13;101150.22;4996947;28;20049;-73
2021/04/26 04:58:03;;;;;;;6.85;5.80;;;;;;;13.01;80.60;101145.34;4982807;28;20060;-74
2021/04/26 05:00:48;;;;;;;8.07;5.00;;;;;;;12.92;80.33;101142.84;4995589;28;20045;-73
2021/04/26 05:03:34;;;;;;;10.10;5.00;;;;;;;13.15;79.23;101152.94;4983390;28;20031;-74
2021/04/26 05:06:20;;;;;;;8.68;5.78;;;;;;;12.99;79.71;101155.00;4996577;28;20030;-73
2021/04/26 05:09:06;;;;;;;11.30;5.80;;;;;;;12.89;79.66;101158.69;4996778;28;20030;-73
2021/04/26 05:11:53;;;;;;;11.88;6.68;;;;;;;13.36;78.58;101157.72;4996385;28;20463;-73
2021/04/26 05:14:39;;;;;;;9.93;5.65;;;;;;;13.24;80.37;101156.25;4995383;28;20034;-73
2021/04/26 05:17:26;;;;;;;11.65;5.82;;;;;;;13.18;79.80;101152.88;4995447;28;20037;-73
2021/04/26 05:20:12;;;;;;;10.57;5.75;;;;;;;12.94;82.28;101151.56;4995182;28;20041;-73
2021/04/26 05:22:58;;;;;;;8.65;5.90;;;;;;;12.56;85.91;101148.84;4995970;28;20058;-74
2021/04/26 05:25:44;;;;;;;8.80;5.53;;;;;;;12.72;87.07;101147.66;4995906;28;20038;-74
2021/04/26 05:28:30;;;;;;;12.13;5.75;;;;;;;12.79;86.04;101151.91;4996285;28;20029;-73
2021/04/26 05:31:16;;;;;;;10.07;5.75;;;;;;;13.46;82.97;101152.22;4995814;28;20092;-73
2021/04/26 05:34:01;;;;;;;8.20;5.50;;;;;;;13.38;82.69;101155.94;4995391;28;20406;-74
2021/04/26 05:36:47;;;;;;;13.45;5.78;;;;;;;12.97;86.68;101161.16;4996010;28;20041;-73
2021/04/26 05:39:33;;;;;;;9.82;5.30;;;;;;;13.33;85.54;101161.31;4982672;28;20065;-74
2021/04/26 05:42:19;;;;;;;11.60;6.03;;;;;;;13.70;84.62;101171.88;4995857;28;20026;-74
2021/04/26 05:45:05;;;;;;;11.82;5.60;;;;;;;13.65;85.41;101173.75;4996153;28;20033;-73
2021/04/26 05:47:51;;;;;;;14.30;6.15;;;;;;;13.58;86.62;101173.03;4994993;28;20053;-74
2021/04/26 05:50:38;;;;;;;9.40;5.88;;;;;;;13.80;85.96;101174.28;4995774;28;20118;-73
2021/04/26 05:53:24;;;;;;;10.48;5.90;;;;;;;13.47;90.27;101175.00;4994726;28;20072;-74
2021/04/26 05:56:10;;;;;;;10.35;5.88;;;;;;;13.95;88.08;101178.31;4995650;28;20030;-75
2021/04/26 05:58:55;;;;;;;9.05;5.85;;;;;;;14.06;87.02;101179.78;4981001;28;20117;-73
2021/04/26 06:01:41;;;;;;;12.55;6.53;;;;;;;14.31;86.88;101166.91;4994819;28;20366;-73
2021/04/26 06:04:27;;;;;;;11.85;6.22;;;;;;;14.36;85.55;101173.75;4996166;28;20052;-73
2021/04/26 06:07:13;;;;;;;16.83;6.90;;;;;;;14.37;88.15;101177.28;4981334;28;20533;-73
2021/04/26 06:09:58;;;;;;;11.70;6.43;;;;;;;14.41;88.92;101177.19;4995921;28;20034;-74
2021/04/26 06:12:44;;;;;;;13.82;6.93;;;;;;;14.93;86.42;101179.28;4994295;28;20117;-74
2021/04/26 06:15:30;;;;;;;14.35;6.43;;;;;;;15.32;83.24;101187.81;4995908;28;20026;-73
2021/04/26 06:18:18;;;;;;;14.75;6.50;;;;;;;15.24;85.05;101188.06;4981257;28;20040;-74
2021/04/26 06:21:04;;;;;;;14.32;7.22;;;;;;;15.87;79.26;101190.56;4995257;28;20445;-74
2021/04/26 06:23:50;;;;;;;16.73;5.78;;;;;;;15.30;77.70;101189.66;4995277;28;20128;-73
2021/04/26 06:26:36;;;;;;;5.60;4.38;;;;;;;15.58;74.31;101191.44;4995336;28;20285;-73
2021/04/26 06:29:21;;;;;;;7.30;4.20;;;;;;;15.71;73.13;101189.31;4995570;28;20037;-73
2021/04/26 06:32:07;;;;;;;7.15;4.55;;;;;;;15.92;73.38;101189.50;4995227;28;20041;-75
2021/04/26 06:34:53;;;;;;;10.32;5.65;;;;;;;16.28;72.80;101200.66;4995233;28;20041;-74
2021/04/26 06:37:39;;;;;;;6.00;4.63;;;;;;;15.74;71.49;101198.00;4993507;28;20411;-74
2021/04/26 06:40:24;;;;;;;11.40;4.57;;;;;;;16.02;72.56;101206.78;4995226;28;20023;-73
2021/04/26 06:43:11;;;;;;;7.20;4.28;;;;;;;15.89;69.34;101210.75;4995215;28;20038;-74
2021/04/26 06:45:57;;;;;;;9.68;4.13;;;;;;;16.10;67.04;101206.53;4994511;28;20026;-74
2021/04/26 06:48:42;;;;;;;8.80;4.15;;;;;;;16.63;66.62;101205.66;4995028;28;20117;-74
2021/04/26 06:51:28;;;;;;;5.78;4.00;;;;;;;16.27;67.06;101214.81;4995169;28;20060;-73
2021/04/26 06:54:15;;;;;;;5.57;3.88;;;;;;;16.68;67.51;101214.31;4995064;28;20037;-74
2021/04/26 06:57:00;;;;;;;6.68;4.20;;;;;;;16.92;67.58;101210.81;4995090;28;20092;-74
2021/04/26 06:59:46;;;;;;;7.25;3.97;;;;;;;17.04;68.26;101213.03;4995046;28;20447;-74
2021/04/26 07:02:32;;;;;;;6.35;4.40;;;;;;;16.90;67.98;101212.63;4981091;28;20062;-74
2021/04/26 07:05:18;;;;;;;8.50;4.97;;;;;;;17.19;68.18;101207.13;4995070;28;20065;-75
2021/04/26 07:08:04;;;;;;;5.85;4.43;;;;;;;17.31;67.42;101204.91;4995064;28;20065;-73
2021/04/26 07:10:50;;;;;;;8.40;5.57;;;;;;;16.85;70.46;101199.56;4994809;28;20045;-74
2021/04/26 07:13:36;;;;;;;8.93;5.18;;;;;;;17.28;69.60;101190.94;4997196;28;20096;-73
2021/04/26 07:16:22;;;;;;;10.18;5.65;;;;;;;17.49;66.88;101208.69;4997543;28;20091;-74
2021/04/26 07:19:07;;;;;;;6.57;4.90;;;;;;;17.54;66.21;101210.25;4998541;28;20023;-74
2021/04/26 07:21:53;;;;;;;9.18;5.03;;;;;;;17.92;65.11;101208.78;4998487;28;20045;-74
2021/04/26 07:24:39;;;;;;;7.50;5.00;;;;;;;17.75;65.37;101216.50;4998495;28;20406;-73
2021/04/26 07:27:25;;;;;;;6.20;4.78;;;;;;;18.12;65.86;101220.28;4983921;28;20167;-74
2021/04/26 07:30:11;;;;;;;8.75;5.88;;;;;;;17.98;65.34;101224.44;4998543;28;20026;-74
2021/04/26 07:32:57;;;;;;;9.43;5.70;;;;;;;18.13;65.83;101222.00;4970153;28;20054;-73
2021/04/26 07:35:42;;;;;;;9.15;5.88;;;;;;;18.45;66.13;101228.72;4996689;28;20038;-74
2021/04/26 07:38:28;;;;;;;9.55;6.00;;;;;;;18.57;65.76;101217.59;4998199;28;20026;-75
2021/04/26 07:41:14;;;;;;;11.30;5.70;;;;;;;18.39;66.38;101231.59;4998381;28;20455;-74
2021/04/26 07:44:00;;;;;;;10.60;6.63;;;;;;;18.66;66.51;101228.66;4998219;28;20031;-74
2021/04/26 07:46:46;;;;;;;8.32;6.00;;;;;;;18.70;66.61;101229.41;4997340;28;20157;-75
2021/04/26 07:49:32;;;;;;;9.02;5.82;;;;;;;19.21;66.06;101232.44;4997406;28;20030;-74
2021/04/26 07:52:18;;;;;;;13.07;5.90;;;;;;;19.09;67.97;101227.69;4997923;28;20030;-74
2021/04/26 07:55:04;;;;;;;7.68;5.60;;;;;;;18.87;67.72;101232.19;4996801;28;20030;-74
2021/04/26 07:57:51;;;;;;;8.13;5.82;;;;;;;19.33;66.85;101228.41;4996874;28;20034;-74
2021/04/26 08:00:37;;;;;;;9.32;5.90;;;;;;;19.56;66.20;101230.88;4997189;28;20395;-74
2021/04/26 08:03:23;;;;;;;9.27;5.70;;;;;;;19.39;65.09;101236.97;4983509;28;20364;-74
2021/04/26 08:06:09;;;;;;;9.23;5.60;;;;;;;18.99;66.27;101234.31;4997746;28;20053;-74
2021/04/26 08:08:55;;;;;;;10.00;6.07;;;;;;;19.71;64.84;101239.00;4997537;28;20101;-74
2021/04/26 08:11:41;;;;;;;6.55;5.30;;;;;;;19.89;62.99;101231.97;4997707;28;20109;-74
2021/04/26 08:14:27;;;;;;;9.98;5.50;;;;;;;20.07;62.47;101220.44;4996289;28;20037;-73
2021/04/26 08:17:13;;;;;;;8.57;5.68;;;;;;;20.41;61.11;101226.72;4997522;28;20026;-73
2021/04/26 08:19:58;;;;;;;12.88;5.97;;;;;;;20.73;60.93;101211.78;4996468;28;20030;-74
2021/04/26 08:22:44;;;;;;;9.73;5.55;;;;;;;20.88;59.20;101206.53;4996994;28;20109;-74
2021/04/26 08:25:30;;;;;;;7.55;5.63;;;;;;;20.72;58.31;101199.41;4995407;28;20466;-74
2021/04/26 08:28:19;;;;;;;11.15;5.75;;;;;;;20.85;57.50;101204.00;4997265;28;20121;-74
2021/04/26 08:31:08;;;;;;;9.65;6.00;;;;;;;21.17;58.00;101200.56;4997209;28;20117;-74
2021/04/26 08:33:53;;;;;;;8.25;5.57;;;;;;;21.20;56.92;101202.19;4996652;28;20019;-75
2021/04/26 08:36:39;;;;;;;7.88;5.40;;;;;;;21.36;57.20;101203.97;4980902;28;20474;-74
2021/04/26 08:39:25;;;;;;;7.18;5.18;;;;;;;21.94;54.56;101202.50;4996195;28;20026;-74
2021/04/26 08:42:15;;;;;;;6.95;5.32;;;;;;;21.65;54.09;101205.03;4982904;28;20031;-74
2021/04/26 08:45:06;;;;;;;11.00;5.65;;;;;;;21.65;54.66;101194.34;4996041;28;20034;-74
2021/04/26 08:47:52;;;;;;;7.28;4.93;;;;;;;21.77;51.26;101180.38;4995932;28;20027;-75
2021/04/26 08:50:38;;;;;;;6.82;4.50;;;;;;;21.54;50.01;101183.44;4995411;28;20022;-74
2021/04/26 08:53:28;;;;;;;8.55;4.40;;;;;;;22.11;49.22;101175.69;4995566;28;20032;-74
2021/04/26 08:56:14;;;;;;;7.70;4.90;;;;;;;22.10;48.32;101178.47;4995586;28;20030;-73
2021/04/26 08:59:03;;;;;;;7.50;4.95;;;;;;;22.12;48.69;101169.44;4995506;28;20458;-74
2021/04/26 09:02:03;;;;;;;8.45;5.03;;;;;;;22.25;49.79;101166.88;4996032;28;20359;-74
2021/04/26 09:04:56;;;;;;;8.55;5.25;;;;;;;22.34;49.66;101169.88;4982652;28;20036;-72
2021/04/26 09:07:49;;;;;;;7.88;5.55;;;;;;;22.91;47.26;101171.78;4996750;28;20068;-74
2021/04/26 09:10:36;;;;;;;9.52;5.55;;;;;;;22.89;47.21;101176.38;4983018;28;20022;-76
2021/04/26 09:13:27;;;;;;;11.45;5.53;;;;;;;22.66;47.30;101184.03;4983034;28;20498;-75
2021/04/26 09:16:24;;;;;;;8.27;5.43;;;;;;;22.18;48.21;101169.06;4996545;28;20035;-75
2021/04/26 09:19:10;;;;;;;8.43;5.30;;;;;;;22.23;48.76;101166.97;4996523;28;20447;-74
2021/04/26 09:21:59;;;;;;;6.40;5.22;;;;;;;22.47;47.15;101157.56;4982156;28;20085;-74
2021/04/26 09:24:44;;;;;;;8.45;5.10;;;;;;;22.69;47.18;101163.34;4995099;28;20483;-73
2021/04/26 09:27:30;;;;;;;8.82;5.28;;;;;;;22.95;47.26;101161.78;4996324;28;20038;-73
2021/04/26 09:30:42;;;;;;;7.50;5.28;;;;;;;22.54;47.60;101155.38;4995194;28;20038;-73
2021/04/26 09:33:37;;;;;;;13.40;6.90;;;;;;;23.21;46.88;101153.03;4995984;28;20034;-74
2021/04/26 09:36:30;;;;;;;45.63;9.77;;;;;;;22.20;48.46;101158.31;4995807;28;20023;-73
2021/04/26 09:39:16;;;;;;;12.98;7.30;;;;;;;22.97;45.95;101149.16;4994551;28;20053;-73
2021/04/26 09:42:03;;;;;;;9.48;5.40;;;;;;;22.69;47.30;101157.13;4994536;28;20153;-73
2021/04/26 09:44:48;;;;;;;13.48;8.95;;;;;;;22.77;46.77;101147.72;4995690;28;20037;-74
2021/04/26 09:47:34;;;;;;;8.10;4.93;;;;;;;22.95;45.68;101141.22;4995950;28;20084;-72
2021/04/26 09:50:20;;;;;;;12.27;5.70;;;;;;;22.36;47.20;101138.63;4995754;28;20026;-73
2021/04/26 09:53:08;;;;;;;10.30;5.55;;;;;;;22.28;46.75;101140.91;4995443;28;20030;-73
2021/04/26 09:55:55;;;;;;;7.82;4.90;;;;;;;22.68;45.76;101142.06;4981446;28;20133;-73
2021/04/26 09:58:43;;;;;;;12.93;5.95;;;;;;;22.39;46.23;101132.25;4995510;28;20026;-73
2021/04/26 10:01:32;;;;;;;7.32;4.68;;;;;;;22.43;44.35;101123.94;4994875;28;20080;-74
2021/04/26 10:04:21;;;;;;;7.53;4.68;;;;;;;22.63;43.76;101134.31;4995798;28;20104;-74
2021/04/26 10:07:07;;;;;;;11.70;4.80;;;;;;;22.67;44.82;101138.53;4994467;28;20041;-74
2021/04/26 10:09:54;;;;;;;9.13;4.72;;;;;;;22.64;44.36;101136.06;4994499;28;20104;-74
2021/04/26 10:12:40;;;;;;;10.57;5.10;;;;;;;22.36;43.06;101130.63;4995406;28;20030;-73
2021/04/26 10:15:27;;;;;;;6.88;4.72;;;;;;;22.80;43.45;101136.84;4994545;28;20200;-73
2021/04/26 10:18:15;;;;;;;7.88;4.65;;;;;;;22.31;43.49;101137.19;4994795;28;20027;-75
2021/04/26 10:21:03;;;;;;;7.30;4.90;;;;;;;22.73;40.42;101137.31;4981182;28;20061;-74
2021/04/26 10:23:50;;;;;;;8.20;4.53;;;;;;;22.83;41.25;101141.16;4994086;28;20475;-76
2021/04/26 10:27:08;;;;;;;8.88;4.55;;;;;;;22.68;42.28;101137.59;4982143;28;20515;-74
2021/04/26 10:30:08;;;;;;;7.53;5.05;;;;;;;22.49;42.56;101136.97;4994529;28;20022;-73
2021/04/26 10:32:59;;;;;;;8.35;4.85;;;;;;;22.69;42.44;101133.09;4993813;28;20109;-74
2021/04/26 10:35:50;;;;;;;6.75;4.40;;;;;;;22.68;42.72;101132.25;4995418;28;20109;-75
2021/04/26 10:38:37;;;;;;;5.80;4.47;;;;;;;22.82;42.63;101131.38;4994589;28;20026;-74
2021/04/26 10:41:59;;;;;;;6.40;4.80;;;;;;;22.44;43.06;101125.69;4995612;28;20023;-75
2021/04/26 10:44:50;;;;;;;5.80;4.60;;;;;;;22.85;42.45;101128.53;4994521;28;20046;-74
2021/04/26 10:47:43;;;;;;;6.53;4.90;;;;;;;23.39;41.61;101134.00;4995964;28;20433;-75
2021/04/26 10:54:11;;;;;;;7.00;4.68;;;;;;;23.08;36.88;101112.78;5380665;22;20057;-75
2021/04/26 10:57:36;;;;;;;6.15;4.43;;;;;;;23.38;36.42;101109.19;5056681;28;20048;-75
2021/04/26 11:00:31;;;;;;;6.35;4.65;;;;;;;23.18;37.08;101116.63;5058431;28;20107;-75
2021/04/26 11:03:16;;;;;;;7.90;4.15;;;;;;;22.41;38.30;101115.19;5042740;28;20024;-73
2021/04/26 11:06:12;;;;;;;7.65;4.43;;;;;;;23.08;38.03;101110.09;5043089;28;20056;-74
2021/04/26 11:09:08;;;;;;;7.40;4.40;;;;;;;23.56;37.47;101105.31;5043715;28;20021;-74
2021/04/26 11:12:02;;;;;;;6.55;4.25;;;;;;;23.29;38.34;101099.91;5058129;28;20353;-75
2021/04/26 11:15:25;;;;;;;7.78;4.07;;;;;;;23.44;34.94;101110.47;5056112;28;20449;-74
2021/04/26 11:18:17;;;;;;;8.65;4.32;;;;;;;23.42;35.47;101112.41;5058136;28;20527;-75
2021/04/26 11:21:04;;;;;;;7.13;4.43;;;;;;;23.80;36.11;101098.34;5057214;28;20032;-75
2021/04/26 11:23:54;;;;;;;8.40;4.70;;;;;;;23.88;36.80;101101.38;5042586;28;20032;-74
2021/04/26 11:26:39;;;;;;;7.07;4.22;;;;;;;24.34;35.19;101106.25;5056141;28;20060;-75
2021/04/26 11:29:25;;;;;;;5.15;4.40;;;;;;;23.81;35.68;101095.59;5056461;28;20361;-74
2021/04/26 11:32:13;;;;;;;9.55;4.82;;;;;;;24.05;35.57;101091.31;5056175;28;20017;-74
2021/04/26 11:35:04;;;;;;;7.20;4.53;;;;;;;23.56;35.37;101097.28;5043122;28;20158;-74
2021/04/26 11:37:56;;;;;;;5.53;4.25;;;;;;;24.32;34.61;101093.94;5043164;28;20039;-75
2021/04/26 11:40:50;;;;;;;8.02;4.18;;;;;;;24.15;34.73;101094.25;5056815;28;20049;-74
2021/04/26 11:43:48;;;;;;;7.97;4.93;;;;;;;24.29;34.75;101094.16;5055882;28;20029;-74
2021/04/26 11:46:34;;;;;;;4.75;4.18;;;;;;;24.16;34.14;101082.56;5056773;28;20036;-75
2021/04/26 11:49:22;;;;;;;6.25;4.22;;;;;;;24.14;35.20;101095.19;5042412;28;20036;-74
2021/04/26 11:52:11;;;;;;;10.68;4.80;;;;;;;24.18;34.45;101094.03;5056450;28;20076;-74
2021/04/26 11:55:00;;;;;;;11.52;4.72;;;;;;;24.06;33.87;101081.47;5056207;28;20491;-74
2021/04/26 11:57:48;;;;;;;7.05;4.50;;;;;;;24.15;33.99;101092.41;5042395;28;20020;-74
2021/04/26 12:00:34;;;;;;;6.55;4.55;;;;;;;24.27;33.99;101083.53;5055772;28;20043;-75
2021/04/26 12:03:20;;;;;;;7.97;4.45;;;;;;;24.02;34.06;101082.66;5055439;28;20039;-73
2021/04/26 12:06:06;;;;;;;9.63;4.40;;;;;;;24.59;34.22;101078.66;5055339;28;20048;-73
2021/04/26 12:08:53;;;;;;;7.18;4.32;;;;;;;23.98;34.11;101073.09;5055060;28;20025;-73
2021/04/26 12:11:38;;;;;;;10.65;5.47;;;;;;;24.29;33.96;101070.03;5055309;28;20028;-74
2021/04/26 12:14:24;;;;;;;10.35;5.20;;;;;;;24.25;33.90;101069.41;5055317;28;20021;-73
2021/04/26 12:17:20;;;;;;;11.63;5.47;;;;;;;23.76;33.56;101054.91;5055022;28;20460;-73
2021/04/26 12:20:15;;;;;;;8.90;5.65;;;;;;;23.95;33.48;101055.41;5055525;28;20083;-74
2021/04/26 12:23:06;;;;;;;18.25;12.88;;;;;;;24.52;33.96;101046.09;5054914;28;20425;-74
2021/04/26 12:25:52;;;;;;;10.55;5.40;;;;;;;24.74;34.09;101042.75;5055994;28;20090;-74
2021/04/26 12:28:42;;;;;;;10.85;7.15;;;;;;;24.74;33.50;101040.06;5054948;28;20024;-73
2021/04/26 12:31:29;;;;;;;9.20;5.55;;;;;;;24.33;34.27;101037.59;5056067;28;20035;-74
2021/04/26 12:34:15;;;;;;;9.05;6.07;;;;;;;24.25;34.27;101031.03;5056091;28;20025;-74
2021/04/26 12:37:01;;;;;;;9.82;6.03;;;;;;;24.24;33.97;101027.53;5054760;28;20028;-73
2021/04/26 12:39:47;;;;;;;11.50;5.72;;;;;;;24.13;34.01;101024.72;5056710;28;20040;-73
2021/04/26 12:42:33;;;;;;;12.15;5.28;;;;;;;24.13;34.91;101021.16;5055618;28;20033;-73
2021/04/26 12:45:22;;;;;;;8.45;5.35;;;;;;;24.19;34.24;101013.56;5054639;28;20458;-73
2021/04/26 12:48:08;;;;;;;8.75;5.85;;;;;;;24.22;34.34;101021.41;5054679;28;20039;-73
2021/04/26 12:50:54;;;;;;;12.27;7.90;;;;;;;24.36;34.36;101020.44;5040867;28;20373;-73
2021/04/26 12:53:41;;;;;;;12.30;5.68;;;;;;;24.22;34.84;101009.84;5055072;28;20072;-73
2021/04/26 12:56:27;;;;;;;9.18;5.63;;;;;;;24.55;34.30;101013.69;5054770;28;20028;-73
2021/04/26 12:59:13;;;;;;;15.38;5.15;;;;;;;23.97;34.48;101009.78;5054986;28;20029;-73
2021/04/26 13:02:02;;;;;;;10.82;5.72;;;;;;;24.83;33.33;101031.41;5054989;28;20036;-73